sensor_id;sensor_type;location;lat;lon;timestamp;temperature;humidity
5210;DHT22;2624;48.048;11.706;2022-09-09T00:00:58;16.90;99.90
5210;DHT22;2624;48.048;11.706;2022-09-09T00:06:08;16.50;99.90
5210;DHT22;2624;48.048;11.706;2022-09-09T00:11:17;16.20;99.90
5210;DHT22;2624;48.048;11.706;2022-09-09T00:16:23;15.90;99.90
5210;DHT22;2624;48.048;11.706;2022-09-09T00:21:32;15.90;99.90
5210;DHT22;2624;48.048;11.706;2022-09-09T00:26:39;15.90;99.90
5210;DHT22;2624;48.048;11.706;2022-09-09T00:31:43;15.70;99.90
5210;DHT22;2624;48.048;11.706;2022-09-09T00:36:45;15.70;99.90
5210;DHT22;2624;48.048;11.706;2022-09-09T00:42:00;15.30;99.90
5210;DHT22;2624;48.048;11.706;2022-09-09T00:47:16;15.30;99.90
5210;DHT22;2624;48.048;11.706;2022-09-09T00:52:27;15.40;99.90
5210;DHT22;2624;48.048;11.706;2022-09-09T00:57:35;15.50;99.90
5210;DHT22;2624;48.048;11.706;2022-09-09T01:02:41;15.60;99.90
5210;DHT22;2624;48.048;11.706;2022-09-09T01:07:48;15.60;99.90
5210;DHT22;2624;48.048;11.706;2022-09-09T01:12:56;15.70;99.90
5210;DHT22;2624;48.048;11.706;2022-09-09T01:18:04;15.90;99.90
5210;DHT22;2624;48.048;11.706;2022-09-09T01:23:25;15.90;99.90
5210;DHT22;2624;48.048;11.706;2022-09-09T01:28:30;15.70;99.90
5210;DHT22;2624;48.048;11.706;2022-09-09T01:33:35;15.50;99.90
5210;DHT22;2624;48.048;11.706;2022-09-09T01:38:37;15.50;99.90
5210;DHT22;2624;48.048;11.706;2022-09-09T01:43:41;15.30;99.90
5210;DHT22;2624;48.048;11.706;2022-09-09T01:48:43;15.50;99.90
5210;DHT22;2624;48.048;11.706;2022-09-09T01:53:45;15.70;99.90
5210;DHT22;2624;48.048;11.706;2022-09-09T01:59:01;15.70;99.90
5210;DHT22;2624;48.048;11.706;2022-09-09T02:04:10;15.50;99.90
5210;DHT22;2624;48.048;11.706;2022-09-09T02:09:17;15.50;99.90
5210;DHT22;2624;48.048;11.706;2022-09-09T02:14:25;15.40;99.90
5210;DHT22;2624;48.048;11.706;2022-09-09T02:19:32;15.40;99.90
5210;DHT22;2624;48.048;11.706;2022-09-09T02:24:38;15.40;99.90
5210;DHT22;2624;48.048;11.706;2022-09-09T02:29:42;15.40;99.90
5210;DHT22;2624;48.048;11.706;2022-09-09T02:34:47;15.70;99.90
5210;DHT22;2624;48.048;11.706;2022-09-09T02:39:49;15.60;99.90
5210;DHT22;2624;48.048;11.706;2022-09-09T02:44:53;15.70;99.90
5210;DHT22;2624;48.048;11.706;2022-09-09T02:50:03;15.50;99.90
5210;DHT22;2624;48.048;11.706;2022-09-09T02:55:11;15.80;99.90
5210;DHT22;2624;48.048;11.706;2022-09-09T03:00:23;15.70;99.90
5210;DHT22;2624;48.048;11.706;2022-09-09T03:05:25;15.70;99.90
5210;DHT22;2624;48.048;11.706;2022-09-09T03:10:28;15.70;99.90
5210;DHT22;2624;48.048;11.706;2022-09-09T03:15:32;15.50;99.90
5210;DHT22;2624;48.048;11.706;2022-09-09T03:20:34;15.60;99.90
5210;DHT22;2624;48.048;11.706;2022-09-09T03:25:35;15.70;99.90
5210;DHT22;2624;48.048;11.706;2022-09-09T03:30:39;15.60;99.90
5210;DHT22;2624;48.048;11.706;2022-09-09T03:35:45;15.60;99.90
5210;DHT22;2624;48.048;11.706;2022-09-09T03:40:50;15.50;99.90
5210;DHT22;2624;48.048;11.706;2022-09-09T03:45:54;15.70;99.90
5210;DHT22;2624;48.048;11.706;2022-09-09T03:50:57;15.60;99.90
5210;DHT22;2624;48.048;11.706;2022-09-09T03:56:02;15.50;99.90
5210;DHT22;2624;48.048;11.706;2022-09-09T04:01:08;15.60;99.90
5210;DHT22;2624;48.048;11.706;2022-09-09T04:06:11;15.70;99.90
5210;DHT22;2624;48.048;11.706;2022-09-09T04:11:14;15.50;99.90
5210;DHT22;2624;48.048;11.706;2022-09-09T04:16:17;15.50;99.90
5210;DHT22;2624;48.048;11.706;2022-09-09T04:21:20;15.70;99.90
5210;DHT22;2624;48.048;11.706;2022-09-09T04:26:22;15.30;99.90
5210;DHT22;2624;48.048;11.706;2022-09-09T04:31:25;15.20;99.90
5210;DHT22;2624;48.048;11.706;2022-09-09T04:36:27;15.50;99.90
5210;DHT22;2624;48.048;11.706;2022-09-09T04:41:29;15.40;99.90
5210;DHT22;2624;48.048;11.706;2022-09-09T04:46:33;15.40;99.90
5210;DHT22;2624;48.048;11.706;2022-09-09T04:51:35;15.10;99.90
5210;DHT22;2624;48.048;11.706;2022-09-09T04:56:37;15.10;99.90
5210;DHT22;2624;48.048;11.706;2022-09-09T05:01:40;15.40;99.90
5210;DHT22;2624;48.048;11.706;2022-09-09T05:06:41;15.30;99.90
5210;DHT22;2624;48.048;11.706;2022-09-09T05:11:43;15.10;99.90
5210;DHT22;2624;48.048;11.706;2022-09-09T05:16:46;15.10;99.90
5210;DHT22;2624;48.048;11.706;2022-09-09T05:21:50;15.20;99.90
5210;DHT22;2624;48.048;11.706;2022-09-09T05:26:52;15.20;99.90
5210;DHT22;2624;48.048;11.706;2022-09-09T05:31:55;15.20;99.90
5210;DHT22;2624;48.048;11.706;2022-09-09T05:36:56;15.30;99.90
5210;DHT22;2624;48.048;11.706;2022-09-09T05:41:58;15.30;99.90
5210;DHT22;2624;48.048;11.706;2022-09-09T05:47:01;15.20;99.90
5210;DHT22;2624;48.048;11.706;2022-09-09T05:52:03;15.10;99.90
5210;DHT22;2624;48.048;11.706;2022-09-09T05:57:05;15.10;99.90
5210;DHT22;2624;48.048;11.706;2022-09-09T06:02:09;15.10;99.90
5210;DHT22;2624;48.048;11.706;2022-09-09T06:07:10;15.10;99.90
5210;DHT22;2624;48.048;11.706;2022-09-09T06:12:13;15.10;99.90
5210;DHT22;2624;48.048;11.706;2022-09-09T06:17:16;15.20;99.90
5210;DHT22;2624;48.048;11.706;2022-09-09T06:22:18;15.10;99.90
5210;DHT22;2624;48.048;11.706;2022-09-09T06:27:20;15.10;99.90
5210;DHT22;2624;48.048;11.706;2022-09-09T06:32:23;15.10;99.90
5210;DHT22;2624;48.048;11.706;2022-09-09T06:37:25;15.10;99.90
5210;DHT22;2624;48.048;11.706;2022-09-09T06:42:27;15.20;99.90
5210;DHT22;2624;48.048;11.706;2022-09-09T06:47:30;15.00;99.90
5210;DHT22;2624;48.048;11.706;2022-09-09T06:52:34;15.00;99.90
5210;DHT22;2624;48.048;11.706;2022-09-09T06:57:35;15.00;99.90
5210;DHT22;2624;48.048;11.706;2022-09-09T07:02:38;15.00;99.90
5210;DHT22;2624;48.048;11.706;2022-09-09T07:07:41;15.00;99.90
5210;DHT22;2624;48.048;11.706;2022-09-09T07:12:43;14.90;99.90
5210;DHT22;2624;48.048;11.706;2022-09-09T07:17:46;15.10;99.90
5210;DHT22;2624;48.048;11.706;2022-09-09T07:22:48;15.00;99.90
5210;DHT22;2624;48.048;11.706;2022-09-09T07:27:50;15.00;99.90
5210;DHT22;2624;48.048;11.706;2022-09-09T07:32:53;15.10;99.90
5210;DHT22;2624;48.048;11.706;2022-09-09T07:37:57;15.00;99.90
5210;DHT22;2624;48.048;11.706;2022-09-09T07:42:59;15.00;99.90
5210;DHT22;2624;48.048;11.706;2022-09-09T07:48:03;15.10;99.90
5210;DHT22;2624;48.048;11.706;2022-09-09T07:53:05;15.00;99.90
5210;DHT22;2624;48.048;11.706;2022-09-09T07:58:07;14.90;99.90
5210;DHT22;2624;48.048;11.706;2022-09-09T08:03:10;14.70;99.90
5210;DHT22;2624;48.048;11.706;2022-09-09T08:08:12;14.80;99.90
5210;DHT22;2624;48.048;11.706;2022-09-09T08:13:13;14.70;99.90
5210;DHT22;2624;48.048;11.706;2022-09-09T08:18:17;14.60;99.90
5210;DHT22;2624;48.048;11.706;2022-09-09T08:23:19;14.90;99.90
5210;DHT22;2624;48.048;11.706;2022-09-09T08:28:21;14.80;99.90
5210;DHT22;2624;48.048;11.706;2022-09-09T08:33:24;14.90;99.90
5210;DHT22;2624;48.048;11.706;2022-09-09T08:38:26;14.90;99.90
5210;DHT22;2624;48.048;11.706;2022-09-09T08:43:29;14.90;99.90
5210;DHT22;2624;48.048;11.706;2022-09-09T08:48:47;14.80;99.90
5210;DHT22;2624;48.048;11.706;2022-09-09T08:53:53;14.80;99.90
5210;DHT22;2624;48.048;11.706;2022-09-09T08:58:56;15.00;99.90
5210;DHT22;2624;48.048;11.706;2022-09-09T09:04:10;14.90;99.90
5210;DHT22;2624;48.048;11.706;2022-09-09T09:09:20;14.90;99.90
5210;DHT22;2624;48.048;11.706;2022-09-09T09:14:24;14.80;99.90
5210;DHT22;2624;48.048;11.706;2022-09-09T09:19:28;14.90;99.90
5210;DHT22;2624;48.048;11.706;2022-09-09T09:24:35;14.90;99.90
5210;DHT22;2624;48.048;11.706;2022-09-09T09:29:42;15.00;99.90
5210;DHT22;2624;48.048;11.706;2022-09-09T09:34:50;14.90;99.90
5210;DHT22;2624;48.048;11.706;2022-09-09T09:39:53;14.90;99.90
5210;DHT22;2624;48.048;11.706;2022-09-09T09:44:54;15.00;99.90
5210;DHT22;2624;48.048;11.706;2022-09-09T09:49:59;15.00;99.90
5210;DHT22;2624;48.048;11.706;2022-09-09T09:55:04;15.10;99.90
5210;DHT22;2624;48.048;11.706;2022-09-09T10:00:17;15.10;99.90
5210;DHT22;2624;48.048;11.706;2022-09-09T10:05:22;15.20;99.90
5210;DHT22;2624;48.048;11.706;2022-09-09T10:10:33;15.20;99.90
5210;DHT22;2624;48.048;11.706;2022-09-09T10:15:45;15.30;99.90
5210;DHT22;2624;48.048;11.706;2022-09-09T10:20:56;15.30;99.90
5210;DHT22;2624;48.048;11.706;2022-09-09T10:26:12;15.30;99.90
5210;DHT22;2624;48.048;11.706;2022-09-09T10:31:25;15.30;99.90
5210;DHT22;2624;48.048;11.706;2022-09-09T10:36:30;15.40;99.90
5210;DHT22;2624;48.048;11.706;2022-09-09T10:41:42;15.40;99.90
5210;DHT22;2624;48.048;11.706;2022-09-09T10:46:55;15.40;99.90
5210;DHT22;2624;48.048;11.706;2022-09-09T10:52:04;15.40;99.90
5210;DHT22;2624;48.048;11.706;2022-09-09T10:57:12;15.40;99.90
5210;DHT22;2624;48.048;11.706;2022-09-09T11:02:19;15.40;99.90
5210;DHT22;2624;48.048;11.706;2022-09-09T11:07:33;15.50;99.90
5210;DHT22;2624;48.048;11.706;2022-09-09T11:12:37;15.50;99.90
5210;DHT22;2624;48.048;11.706;2022-09-09T11:17:45;15.50;99.90
5210;DHT22;2624;48.048;11.706;2022-09-09T11:22:54;15.50;99.90
5210;DHT22;2624;48.048;11.706;2022-09-09T11:28:10;15.50;99.90
5210;DHT22;2624;48.048;11.706;2022-09-09T11:33:41;15.60;99.90
5210;DHT22;2624;48.048;11.706;2022-09-09T11:38:52;15.60;99.90
5210;DHT22;2624;48.048;11.706;2022-09-09T11:43:54;15.80;99.90
5210;DHT22;2624;48.048;11.706;2022-09-09T11:49:00;15.80;99.90
5210;DHT22;2624;48.048;11.706;2022-09-09T11:54:29;15.90;99.90
5210;DHT22;2624;48.048;11.706;2022-09-09T11:59:31;16.00;99.90
5210;DHT22;2624;48.048;11.706;2022-09-09T12:04:38;16.00;99.90
5210;DHT22;2624;48.048;11.706;2022-09-09T12:09:46;16.10;99.90
5210;DHT22;2624;48.048;11.706;2022-09-09T12:14:57;16.20;99.90
5210;DHT22;2624;48.048;11.706;2022-09-09T12:20:08;16.20;99.90
5210;DHT22;2624;48.048;11.706;2022-09-09T12:25:21;16.20;99.90
5210;DHT22;2624;48.048;11.706;2022-09-09T12:30:29;16.20;99.90
5210;DHT22;2624;48.048;11.706;2022-09-09T12:35:33;16.30;99.90
5210;DHT22;2624;48.048;11.706;2022-09-09T12:40:40;16.40;99.90
5210;DHT22;2624;48.048;11.706;2022-09-09T12:45:42;16.50;99.90
5210;DHT22;2624;48.048;11.706;2022-09-09T12:50:46;16.60;99.90
5210;DHT22;2624;48.048;11.706;2022-09-09T12:55:52;16.70;99.90
5210;DHT22;2624;48.048;11.706;2022-09-09T13:00:56;16.80;99.90
5210;DHT22;2624;48.048;11.706;2022-09-09T13:06:09;16.80;99.90
5210;DHT22;2624;48.048;11.706;2022-09-09T13:11:16;16.80;99.90
5210;DHT22;2624;48.048;11.706;2022-09-09T13:16:21;16.80;99.90
5210;DHT22;2624;48.048;11.706;2022-09-09T13:21:32;16.80;99.90
5210;DHT22;2624;48.048;11.706;2022-09-09T13:26:36;16.80;99.90
5210;DHT22;2624;48.048;11.706;2022-09-09T13:31:40;16.70;99.90
5210;DHT22;2624;48.048;11.706;2022-09-09T13:36:46;16.80;99.90
5210;DHT22;2624;48.048;11.706;2022-09-09T13:41:50;16.70;99.90
5210;DHT22;2624;48.048;11.706;2022-09-09T13:47:02;16.70;99.90
5210;DHT22;2624;48.048;11.706;2022-09-09T13:52:08;16.60;99.90
5210;DHT22;2624;48.048;11.706;2022-09-09T13:57:17;16.60;99.90
5210;DHT22;2624;48.048;11.706;2022-09-09T14:02:19;16.50;99.90
5210;DHT22;2624;48.048;11.706;2022-09-09T14:07:23;16.50;99.90
5210;DHT22;2624;48.048;11.706;2022-09-09T14:12:27;16.50;99.90
5210;DHT22;2624;48.048;11.706;2022-09-09T14:17:29;16.50;99.90
5210;DHT22;2624;48.048;11.706;2022-09-09T14:22:31;16.40;99.90
5210;DHT22;2624;48.048;11.706;2022-09-09T14:27:34;16.40;99.90
5210;DHT22;2624;48.048;11.706;2022-09-09T14:32:36;16.40;99.90
5210;DHT22;2624;48.048;11.706;2022-09-09T14:37:38;16.50;99.90
5210;DHT22;2624;48.048;11.706;2022-09-09T14:42:41;16.50;99.90
5210;DHT22;2624;48.048;11.706;2022-09-09T14:47:43;16.50;99.90
5210;DHT22;2624;48.048;11.706;2022-09-09T14:52:45;16.50;99.90
5210;DHT22;2624;48.048;11.706;2022-09-09T14:57:49;16.50;99.90
5210;DHT22;2624;48.048;11.706;2022-09-09T15:02:52;16.60;99.90
5210;DHT22;2624;48.048;11.706;2022-09-09T15:07:54;16.70;99.90
5210;DHT22;2624;48.048;11.706;2022-09-09T15:12:58;16.70;99.90
5210;DHT22;2624;48.048;11.706;2022-09-09T15:18:00;16.70;99.90
5210;DHT22;2624;48.048;11.706;2022-09-09T15:23:01;16.70;99.90
5210;DHT22;2624;48.048;11.706;2022-09-09T15:28:04;16.70;99.90
5210;DHT22;2624;48.048;11.706;2022-09-09T15:33:08;16.70;99.90
5210;DHT22;2624;48.048;11.706;2022-09-09T15:38:10;16.70;99.90
5210;DHT22;2624;48.048;11.706;2022-09-09T15:43:14;16.60;99.90
5210;DHT22;2624;48.048;11.706;2022-09-09T15:48:16;16.60;99.90
5210;DHT22;2624;48.048;11.706;2022-09-09T15:53:19;16.60;99.90
5210;DHT22;2624;48.048;11.706;2022-09-09T15:58:23;16.50;99.90
5210;DHT22;2624;48.048;11.706;2022-09-09T16:03:24;16.50;99.90
5210;DHT22;2624;48.048;11.706;2022-09-09T16:08:31;16.50;99.90
5210;DHT22;2624;48.048;11.706;2022-09-09T16:13:35;16.50;99.90
5210;DHT22;2624;48.048;11.706;2022-09-09T16:18:38;16.50;99.90
5210;DHT22;2624;48.048;11.706;2022-09-09T16:23:41;16.50;99.90
5210;DHT22;2624;48.048;11.706;2022-09-09T16:28:44;16.50;99.90
5210;DHT22;2624;48.048;11.706;2022-09-09T16:33:47;16.40;99.90
5210;DHT22;2624;48.048;11.706;2022-09-09T16:38:52;16.40;99.90
5210;DHT22;2624;48.048;11.706;2022-09-09T16:43:58;16.50;99.90
5210;DHT22;2624;48.048;11.706;2022-09-09T16:49:01;16.40;99.90
5210;DHT22;2624;48.048;11.706;2022-09-09T16:54:05;16.40;99.90
5210;DHT22;2624;48.048;11.706;2022-09-09T16:59:11;16.30;99.90
5210;DHT22;2624;48.048;11.706;2022-09-09T17:04:15;16.30;99.90
5210;DHT22;2624;48.048;11.706;2022-09-09T17:09:22;16.30;99.90
5210;DHT22;2624;48.048;11.706;2022-09-09T17:14:25;16.30;99.90
5210;DHT22;2624;48.048;11.706;2022-09-09T17:19:27;16.30;99.90
5210;DHT22;2624;48.048;11.706;2022-09-09T17:24:29;16.20;99.90
5210;DHT22;2624;48.048;11.706;2022-09-09T17:29:32;16.20;99.90
5210;DHT22;2624;48.048;11.706;2022-09-09T17:34:36;16.10;99.90
5210;DHT22;2624;48.048;11.706;2022-09-09T17:39:38;16.00;99.90
5210;DHT22;2624;48.048;11.706;2022-09-09T17:44:41;16.10;99.90
5210;DHT22;2624;48.048;11.706;2022-09-09T17:49:43;15.90;99.90
5210;DHT22;2624;48.048;11.706;2022-09-09T17:54:45;15.90;99.90
5210;DHT22;2624;48.048;11.706;2022-09-09T17:59:48;15.80;99.90
5210;DHT22;2624;48.048;11.706;2022-09-09T18:04:50;15.80;99.90
5210;DHT22;2624;48.048;11.706;2022-09-09T18:09:52;15.70;99.90
5210;DHT22;2624;48.048;11.706;2022-09-09T18:14:55;15.80;99.90
5210;DHT22;2624;48.048;11.706;2022-09-09T18:19:57;15.70;99.90
5210;DHT22;2624;48.048;11.706;2022-09-09T18:24:59;15.80;99.90
5210;DHT22;2624;48.048;11.706;2022-09-09T18:30:02;15.60;99.90
5210;DHT22;2624;48.048;11.706;2022-09-09T18:35:05;15.40;99.90
5210;DHT22;2624;48.048;11.706;2022-09-09T18:40:07;15.40;99.90
5210;DHT22;2624;48.048;11.706;2022-09-09T18:45:10;15.30;99.90
5210;DHT22;2624;48.048;11.706;2022-09-09T18:50:12;15.20;99.90
5210;DHT22;2624;48.048;11.706;2022-09-09T18:55:13;15.10;99.90
5210;DHT22;2624;48.048;11.706;2022-09-09T19:00:17;15.00;99.90
5210;DHT22;2624;48.048;11.706;2022-09-09T19:05:18;15.00;99.90
5210;DHT22;2624;48.048;11.706;2022-09-09T19:10:20;15.00;99.90
5210;DHT22;2624;48.048;11.706;2022-09-09T19:15:23;15.10;99.90
5210;DHT22;2624;48.048;11.706;2022-09-09T19:20:25;15.10;99.90
5210;DHT22;2624;48.048;11.706;2022-09-09T19:25:27;14.90;99.90
5210;DHT22;2624;48.048;11.706;2022-09-09T19:30:30;14.80;99.90
5210;DHT22;2624;48.048;11.706;2022-09-09T19:35:34;14.70;99.90
5210;DHT22;2624;48.048;11.706;2022-09-09T19:40:36;14.80;99.90
5210;DHT22;2624;48.048;11.706;2022-09-09T19:45:39;15.10;99.90
5210;DHT22;2624;48.048;11.706;2022-09-09T19:50:41;15.10;99.90
5210;DHT22;2624;48.048;11.706;2022-09-09T19:55:43;15.60;99.90
5210;DHT22;2624;48.048;11.706;2022-09-09T20:00:46;15.50;99.90
5210;DHT22;2624;48.048;11.706;2022-09-09T20:05:48;15.60;99.90
5210;DHT22;2624;48.048;11.706;2022-09-09T20:10:51;15.50;99.90
5210;DHT22;2624;48.048;11.706;2022-09-09T20:15:59;15.50;99.90
5210;DHT22;2624;48.048;11.706;2022-09-09T20:21:03;15.30;99.90
5210;DHT22;2624;48.048;11.706;2022-09-09T20:26:07;15.50;99.90
5210;DHT22;2624;48.048;11.706;2022-09-09T20:31:13;15.20;99.90
5210;DHT22;2624;48.048;11.706;2022-09-09T20:36:17;15.10;99.90
5210;DHT22;2624;48.048;11.706;2022-09-09T20:41:20;15.20;99.90
5210;DHT22;2624;48.048;11.706;2022-09-09T20:46:26;14.80;99.90
5210;DHT22;2624;48.048;11.706;2022-09-09T20:51:28;15.20;99.90
5210;DHT22;2624;48.048;11.706;2022-09-09T20:56:34;14.90;99.90
5210;DHT22;2624;48.048;11.706;2022-09-09T21:01:39;14.70;99.90
5210;DHT22;2624;48.048;11.706;2022-09-09T21:06:41;15.10;99.90
5210;DHT22;2624;48.048;11.706;2022-09-09T21:11:43;15.20;99.90
5210;DHT22;2624;48.048;11.706;2022-09-09T21:16:46;14.70;99.90
5210;DHT22;2624;48.048;11.706;2022-09-09T21:21:47;14.50;99.90
5210;DHT22;2624;48.048;11.706;2022-09-09T21:26:49;14.60;99.90
5210;DHT22;2624;48.048;11.706;2022-09-09T21:31:55;14.60;99.90
5210;DHT22;2624;48.048;11.706;2022-09-09T21:36:57;14.60;99.90
5210;DHT22;2624;48.048;11.706;2022-09-09T21:41:58;14.70;99.90
5210;DHT22;2624;48.048;11.706;2022-09-09T21:47:02;14.90;99.90
5210;DHT22;2624;48.048;11.706;2022-09-09T21:52:04;14.80;99.90
5210;DHT22;2624;48.048;11.706;2022-09-09T21:57:05;14.70;99.90
5210;DHT22;2624;48.048;11.706;2022-09-09T22:02:09;14.60;99.90
5210;DHT22;2624;48.048;11.706;2022-09-09T22:07:11;14.60;99.90
5210;DHT22;2624;48.048;11.706;2022-09-09T22:12:16;14.30;99.90
5210;DHT22;2624;48.048;11.706;2022-09-09T22:17:19;14.40;99.90
5210;DHT22;2624;48.048;11.706;2022-09-09T22:22:23;13.70;99.90
5210;DHT22;2624;48.048;11.706;2022-09-09T22:27:25;13.10;99.90
5210;DHT22;2624;48.048;11.706;2022-09-09T22:32:28;13.10;99.90
5210;DHT22;2624;48.048;11.706;2022-09-09T22:37:30;13.00;99.90
5210;DHT22;2624;48.048;11.706;2022-09-09T22:42:32;12.90;99.90
5210;DHT22;2624;48.048;11.706;2022-09-09T22:47:36;13.00;99.90
5210;DHT22;2624;48.048;11.706;2022-09-09T22:52:38;12.90;99.90
5210;DHT22;2624;48.048;11.706;2022-09-09T22:57:40;12.90;99.90
5210;DHT22;2624;48.048;11.706;2022-09-09T23:02:43;12.90;99.90
5210;DHT22;2624;48.048;11.706;2022-09-09T23:07:48;12.90;99.90
5210;DHT22;2624;48.048;11.706;2022-09-09T23:12:53;12.60;99.90
5210;DHT22;2624;48.048;11.706;2022-09-09T23:17:56;12.60;99.90
5210;DHT22;2624;48.048;11.706;2022-09-09T23:22:58;12.60;99.90
5210;DHT22;2624;48.048;11.706;2022-09-09T23:28:01;12.60;99.90
5210;DHT22;2624;48.048;11.706;2022-09-09T23:33:04;12.60;99.90
5210;DHT22;2624;48.048;11.706;2022-09-09T23:38:06;12.40;99.90
5210;DHT22;2624;48.048;11.706;2022-09-09T23:43:08;12.30;99.90
5210;DHT22;2624;48.048;11.706;2022-09-09T23:48:12;12.50;99.90
5210;DHT22;2624;48.048;11.706;2022-09-09T23:53:15;12.40;99.90
5210;DHT22;2624;48.048;11.706;2022-09-09T23:58:17;12.30;99.90
